sensor_id;sensor_type;location;lat;lon;timestamp;temperature;humidity
14995;DHT22;7593;49.006;8.372;2022-10-16T00:01:41;15.50;99.90
14995;DHT22;7593;49.006;8.372;2022-10-16T00:04:08;15.50;99.90
14995;DHT22;7593;49.006;8.372;2022-10-16T00:06:35;15.50;99.90
14995;DHT22;7593;49.006;8.372;2022-10-16T00:09:02;15.50;99.90
14995;DHT22;7593;49.006;8.372;2022-10-16T00:11:32;15.50;99.90
14995;DHT22;7593;49.006;8.372;2022-10-16T00:14:01;15.50;99.90
14995;DHT22;7593;49.006;8.372;2022-10-16T00:16:28;15.60;99.90
14995;DHT22;7593;49.006;8.372;2022-10-16T00:18:56;15.60;99.90
14995;DHT22;7593;49.006;8.372;2022-10-16T00:21:25;15.50;99.90
14995;DHT22;7593;49.006;8.372;2022-10-16T00:23:55;15.50;99.90
14995;DHT22;7593;49.006;8.372;2022-10-16T00:26:22;15.50;99.90
14995;DHT22;7593;49.006;8.372;2022-10-16T00:28:51;15.50;99.90
14995;DHT22;7593;49.006;8.372;2022-10-16T00:31:20;15.50;99.90
14995;DHT22;7593;49.006;8.372;2022-10-16T00:33:47;15.50;99.90
14995;DHT22;7593;49.006;8.372;2022-10-16T00:36:16;15.50;99.90
14995;DHT22;7593;49.006;8.372;2022-10-16T00:38:43;15.50;99.90
14995;DHT22;7593;49.006;8.372;2022-10-16T00:41:13;15.50;99.90
14995;DHT22;7593;49.006;8.372;2022-10-16T00:43:41;15.40;99.90
14995;DHT22;7593;49.006;8.372;2022-10-16T00:46:15;15.40;99.90
14995;DHT22;7593;49.006;8.372;2022-10-16T00:48:46;15.50;99.90
14995;DHT22;7593;49.006;8.372;2022-10-16T00:51:15;15.50;99.90
14995;DHT22;7593;49.006;8.372;2022-10-16T00:53:44;15.50;99.90
14995;DHT22;7593;49.006;8.372;2022-10-16T00:56:11;15.50;99.90
14995;DHT22;7593;49.006;8.372;2022-10-16T00:58:38;15.50;99.90
14995;DHT22;7593;49.006;8.372;2022-10-16T01:01:05;15.50;99.90
14995;DHT22;7593;49.006;8.372;2022-10-16T01:03:35;15.50;99.90
14995;DHT22;7593;49.006;8.372;2022-10-16T01:06:18;15.50;99.90
14995;DHT22;7593;49.006;8.372;2022-10-16T01:08:53;15.50;99.90
14995;DHT22;7593;49.006;8.372;2022-10-16T01:11:27;15.50;99.90
14995;DHT22;7593;49.006;8.372;2022-10-16T01:14:00;15.50;99.90
14995;DHT22;7593;49.006;8.372;2022-10-16T01:16:33;15.50;99.90
14995;DHT22;7593;49.006;8.372;2022-10-16T01:19:09;15.50;99.90
14995;DHT22;7593;49.006;8.372;2022-10-16T01:21:41;15.50;99.90
14995;DHT22;7593;49.006;8.372;2022-10-16T01:24:17;15.50;99.90
14995;DHT22;7593;49.006;8.372;2022-10-16T01:27:12;15.50;99.90
14995;DHT22;7593;49.006;8.372;2022-10-16T01:29:44;15.50;99.90
14995;DHT22;7593;49.006;8.372;2022-10-16T01:32:17;15.50;99.90
14995;DHT22;7593;49.006;8.372;2022-10-16T01:34:49;15.40;99.90
14995;DHT22;7593;49.006;8.372;2022-10-16T01:37:25;15.50;99.90
14995;DHT22;7593;49.006;8.372;2022-10-16T01:39:58;15.40;99.90
14995;DHT22;7593;49.006;8.372;2022-10-16T01:42:30;15.40;99.90
14995;DHT22;7593;49.006;8.372;2022-10-16T01:45:00;15.40;99.90
14995;DHT22;7593;49.006;8.372;2022-10-16T01:47:30;15.40;99.90
14995;DHT22;7593;49.006;8.372;2022-10-16T01:49:59;15.40;99.90
14995;DHT22;7593;49.006;8.372;2022-10-16T01:52:28;15.40;99.90
14995;DHT22;7593;49.006;8.372;2022-10-16T01:54:56;15.40;99.90
14995;DHT22;7593;49.006;8.372;2022-10-16T01:57:24;15.40;99.90
14995;DHT22;7593;49.006;8.372;2022-10-16T01:59:57;15.40;99.90
14995;DHT22;7593;49.006;8.372;2022-10-16T02:02:27;15.40;99.90
14995;DHT22;7593;49.006;8.372;2022-10-16T02:04:58;15.40;99.90
14995;DHT22;7593;49.006;8.372;2022-10-16T02:07:25;15.30;99.90
14995;DHT22;7593;49.006;8.372;2022-10-16T02:09:52;15.30;99.90
14995;DHT22;7593;49.006;8.372;2022-10-16T02:12:23;15.30;99.90
14995;DHT22;7593;49.006;8.372;2022-10-16T02:14:51;15.30;99.90
14995;DHT22;7593;49.006;8.372;2022-10-16T02:17:20;15.30;99.90
14995;DHT22;7593;49.006;8.372;2022-10-16T02:19:49;15.30;99.90
14995;DHT22;7593;49.006;8.372;2022-10-16T02:22:22;15.30;99.90
14995;DHT22;7593;49.006;8.372;2022-10-16T02:24:53;15.30;99.90
14995;DHT22;7593;49.006;8.372;2022-10-16T02:27:25;15.30;99.90
14995;DHT22;7593;49.006;8.372;2022-10-16T02:29:56;15.20;99.90
14995;DHT22;7593;49.006;8.372;2022-10-16T02:32:30;15.20;99.90
14995;DHT22;7593;49.006;8.372;2022-10-16T02:34:58;15.20;99.90
14995;DHT22;7593;49.006;8.372;2022-10-16T02:37:26;15.20;99.90
14995;DHT22;7593;49.006;8.372;2022-10-16T02:39:55;15.20;99.90
14995;DHT22;7593;49.006;8.372;2022-10-16T02:42:28;15.20;99.90
14995;DHT22;7593;49.006;8.372;2022-10-16T02:44:54;15.20;99.90
14995;DHT22;7593;49.006;8.372;2022-10-16T02:47:21;15.10;99.90
14995;DHT22;7593;49.006;8.372;2022-10-16T02:49:49;15.10;99.90
14995;DHT22;7593;49.006;8.372;2022-10-16T02:52:16;15.10;99.90
14995;DHT22;7593;49.006;8.372;2022-10-16T02:54:43;15.10;99.90
14995;DHT22;7593;49.006;8.372;2022-10-16T02:57:09;15.10;99.90
14995;DHT22;7593;49.006;8.372;2022-10-16T02:59:37;15.10;99.90
14995;DHT22;7593;49.006;8.372;2022-10-16T03:02:04;15.10;99.90
14995;DHT22;7593;49.006;8.372;2022-10-16T03:04:31;15.10;99.90
14995;DHT22;7593;49.006;8.372;2022-10-16T03:06:59;15.10;99.90
14995;DHT22;7593;49.006;8.372;2022-10-16T03:09:25;15.10;99.90
14995;DHT22;7593;49.006;8.372;2022-10-16T03:11:53;15.10;99.90
14995;DHT22;7593;49.006;8.372;2022-10-16T03:14:20;15.10;99.90
14995;DHT22;7593;49.006;8.372;2022-10-16T03:16:47;15.10;99.90
14995;DHT22;7593;49.006;8.372;2022-10-16T03:19:13;15.10;99.90
14995;DHT22;7593;49.006;8.372;2022-10-16T03:21:42;15.10;99.90
14995;DHT22;7593;49.006;8.372;2022-10-16T03:24:11;15.10;99.90
14995;DHT22;7593;49.006;8.372;2022-10-16T03:26:37;15.10;99.90
14995;DHT22;7593;49.006;8.372;2022-10-16T03:29:04;15.10;99.90
14995;DHT22;7593;49.006;8.372;2022-10-16T03:31:32;15.10;99.90
14995;DHT22;7593;49.006;8.372;2022-10-16T03:33:58;15.00;99.90
14995;DHT22;7593;49.006;8.372;2022-10-16T03:36:25;15.10;99.90
14995;DHT22;7593;49.006;8.372;2022-10-16T03:38:52;15.00;99.90
14995;DHT22;7593;49.006;8.372;2022-10-16T03:41:21;15.10;99.90
14995;DHT22;7593;49.006;8.372;2022-10-16T03:43:48;15.10;99.90
14995;DHT22;7593;49.006;8.372;2022-10-16T03:46:14;15.00;99.90
14995;DHT22;7593;49.006;8.372;2022-10-16T03:48:41;15.10;99.90
14995;DHT22;7593;49.006;8.372;2022-10-16T03:51:08;15.10;99.90
14995;DHT22;7593;49.006;8.372;2022-10-16T03:53:35;15.10;99.90
14995;DHT22;7593;49.006;8.372;2022-10-16T03:56:01;15.00;99.90
14995;DHT22;7593;49.006;8.372;2022-10-16T03:58:30;15.00;99.90
14995;DHT22;7593;49.006;8.372;2022-10-16T04:00:56;15.00;99.90
14995;DHT22;7593;49.006;8.372;2022-10-16T04:03:23;15.00;99.90
14995;DHT22;7593;49.006;8.372;2022-10-16T04:05:50;15.00;99.90
14995;DHT22;7593;49.006;8.372;2022-10-16T04:08:17;15.00;99.90
14995;DHT22;7593;49.006;8.372;2022-10-16T04:10:44;15.00;99.90
14995;DHT22;7593;49.006;8.372;2022-10-16T04:13:11;15.00;99.90
14995;DHT22;7593;49.006;8.372;2022-10-16T04:15:39;15.00;99.90
14995;DHT22;7593;49.006;8.372;2022-10-16T04:18:06;15.00;99.90
14995;DHT22;7593;49.006;8.372;2022-10-16T04:20:33;15.10;99.90
14995;DHT22;7593;49.006;8.372;2022-10-16T04:23:00;15.00;99.90
14995;DHT22;7593;49.006;8.372;2022-10-16T04:25:27;15.10;99.90
14995;DHT22;7593;49.006;8.372;2022-10-16T04:27:54;15.10;99.90
14995;DHT22;7593;49.006;8.372;2022-10-16T04:30:21;15.10;99.90
14995;DHT22;7593;49.006;8.372;2022-10-16T04:32:50;15.10;99.90
14995;DHT22;7593;49.006;8.372;2022-10-16T04:35:17;15.10;99.90
14995;DHT22;7593;49.006;8.372;2022-10-16T04:37:44;15.20;99.90
14995;DHT22;7593;49.006;8.372;2022-10-16T04:40:11;15.20;99.90
14995;DHT22;7593;49.006;8.372;2022-10-16T04:42:38;15.20;99.90
14995;DHT22;7593;49.006;8.372;2022-10-16T04:45:06;15.20;99.90
14995;DHT22;7593;49.006;8.372;2022-10-16T04:47:32;15.20;99.90
14995;DHT22;7593;49.006;8.372;2022-10-16T04:50:00;15.20;99.90
14995;DHT22;7593;49.006;8.372;2022-10-16T04:52:27;15.20;99.90
14995;DHT22;7593;49.006;8.372;2022-10-16T04:54:54;15.10;99.90
14995;DHT22;7593;49.006;8.372;2022-10-16T04:57:26;15.10;99.90
14995;DHT22;7593;49.006;8.372;2022-10-16T04:59:53;15.10;99.90
14995;DHT22;7593;49.006;8.372;2022-10-16T05:02:20;15.10;99.90
14995;DHT22;7593;49.006;8.372;2022-10-16T05:04:46;15.10;99.90
14995;DHT22;7593;49.006;8.372;2022-10-16T05:07:14;15.10;99.90
14995;DHT22;7593;49.006;8.372;2022-10-16T05:09:41;15.10;99.90
14995;DHT22;7593;49.006;8.372;2022-10-16T05:12:08;15.00;99.90
14995;DHT22;7593;49.006;8.372;2022-10-16T05:14:34;15.10;99.90
14995;DHT22;7593;49.006;8.372;2022-10-16T05:17:01;15.10;99.90
14995;DHT22;7593;49.006;8.372;2022-10-16T05:19:28;15.10;99.90
14995;DHT22;7593;49.006;8.372;2022-10-16T05:21:54;15.00;99.90
14995;DHT22;7593;49.006;8.372;2022-10-16T05:24:23;15.00;99.90
14995;DHT22;7593;49.006;8.372;2022-10-16T05:26:50;15.00;99.90
14995;DHT22;7593;49.006;8.372;2022-10-16T05:29:17;15.00;99.90
14995;DHT22;7593;49.006;8.372;2022-10-16T05:31:43;15.00;99.90
14995;DHT22;7593;49.006;8.372;2022-10-16T05:34:10;15.00;99.90
14995;DHT22;7593;49.006;8.372;2022-10-16T05:36:37;15.00;99.90
14995;DHT22;7593;49.006;8.372;2022-10-16T05:39:03;15.00;99.90
14995;DHT22;7593;49.006;8.372;2022-10-16T05:41:31;15.00;99.90
14995;DHT22;7593;49.006;8.372;2022-10-16T05:43:58;15.00;99.90
14995;DHT22;7593;49.006;8.372;2022-10-16T05:46:25;15.00;99.90
14995;DHT22;7593;49.006;8.372;2022-10-16T05:48:52;14.90;99.90
14995;DHT22;7593;49.006;8.372;2022-10-16T05:51:19;15.00;99.90
14995;DHT22;7593;49.006;8.372;2022-10-16T05:53:46;14.90;99.90
14995;DHT22;7593;49.006;8.372;2022-10-16T05:56:12;14.90;99.90
14995;DHT22;7593;49.006;8.372;2022-10-16T05:58:41;14.90;99.90
14995;DHT22;7593;49.006;8.372;2022-10-16T06:01:11;14.90;99.90
14995;DHT22;7593;49.006;8.372;2022-10-16T06:03:38;14.90;99.90
14995;DHT22;7593;49.006;8.372;2022-10-16T06:06:09;14.80;99.90
14995;DHT22;7593;49.006;8.372;2022-10-16T06:08:36;14.80;99.90
14995;DHT22;7593;49.006;8.372;2022-10-16T06:11:03;14.80;99.90
14995;DHT22;7593;49.006;8.372;2022-10-16T06:13:30;14.80;99.90
14995;DHT22;7593;49.006;8.372;2022-10-16T06:15:59;14.80;99.90
14995;DHT22;7593;49.006;8.372;2022-10-16T06:18:26;14.80;99.90
14995;DHT22;7593;49.006;8.372;2022-10-16T06:20:53;14.80;99.90
14995;DHT22;7593;49.006;8.372;2022-10-16T06:23:20;14.80;99.90
14995;DHT22;7593;49.006;8.372;2022-10-16T06:25:47;14.80;99.90
14995;DHT22;7593;49.006;8.372;2022-10-16T06:28:14;14.80;99.90
14995;DHT22;7593;49.006;8.372;2022-10-16T06:30:41;14.80;99.90
14995;DHT22;7593;49.006;8.372;2022-10-16T06:33:10;14.80;99.90
14995;DHT22;7593;49.006;8.372;2022-10-16T06:35:37;14.80;99.90
14995;DHT22;7593;49.006;8.372;2022-10-16T06:38:04;14.90;99.90
14995;DHT22;7593;49.006;8.372;2022-10-16T06:40:31;14.90;99.90
14995;DHT22;7593;49.006;8.372;2022-10-16T06:42:58;14.90;99.90
14995;DHT22;7593;49.006;8.372;2022-10-16T06:45:24;14.90;99.90
14995;DHT22;7593;49.006;8.372;2022-10-16T06:47:51;14.90;99.90
14995;DHT22;7593;49.006;8.372;2022-10-16T06:50:19;15.00;99.90
14995;DHT22;7593;49.006;8.372;2022-10-16T06:52:46;15.00;99.90
14995;DHT22;7593;49.006;8.372;2022-10-16T06:55:13;15.00;99.90
14995;DHT22;7593;49.006;8.372;2022-10-16T06:57:40;15.10;99.90
14995;DHT22;7593;49.006;8.372;2022-10-16T07:00:08;15.10;99.90
14995;DHT22;7593;49.006;8.372;2022-10-16T07:02:34;15.10;99.90
14995;DHT22;7593;49.006;8.372;2022-10-16T07:05:01;15.20;99.90
14995;DHT22;7593;49.006;8.372;2022-10-16T07:07:29;15.20;99.90
14995;DHT22;7593;49.006;8.372;2022-10-16T07:09:56;15.30;99.90
14995;DHT22;7593;49.006;8.372;2022-10-16T07:12:23;15.30;99.90
14995;DHT22;7593;49.006;8.372;2022-10-16T07:14:50;15.40;99.90
14995;DHT22;7593;49.006;8.372;2022-10-16T07:17:17;15.50;99.90
14995;DHT22;7593;49.006;8.372;2022-10-16T07:19:45;15.60;99.90
14995;DHT22;7593;49.006;8.372;2022-10-16T07:22:11;15.60;99.90
14995;DHT22;7593;49.006;8.372;2022-10-16T07:24:39;15.60;99.90
14995;DHT22;7593;49.006;8.372;2022-10-16T07:27:06;15.60;99.90
14995;DHT22;7593;49.006;8.372;2022-10-16T07:29:33;15.50;99.90
14995;DHT22;7593;49.006;8.372;2022-10-16T07:32:01;15.60;99.90
14995;DHT22;7593;49.006;8.372;2022-10-16T07:34:28;15.70;99.90
14995;DHT22;7593;49.006;8.372;2022-10-16T07:36:55;15.70;99.90
14995;DHT22;7593;49.006;8.372;2022-10-16T07:39:21;15.70;99.90
14995;DHT22;7593;49.006;8.372;2022-10-16T07:41:50;15.80;99.90
14995;DHT22;7593;49.006;8.372;2022-10-16T07:44:17;15.80;99.90
14995;DHT22;7593;49.006;8.372;2022-10-16T07:46:43;15.90;99.90
14995;DHT22;7593;49.006;8.372;2022-10-16T07:49:10;15.90;99.90
14995;DHT22;7593;49.006;8.372;2022-10-16T07:51:37;16.00;99.90
14995;DHT22;7593;49.006;8.372;2022-10-16T07:54:04;16.10;99.90
14995;DHT22;7593;49.006;8.372;2022-10-16T07:56:31;16.10;99.90
14995;DHT22;7593;49.006;8.372;2022-10-16T07:58:59;16.10;99.90
14995;DHT22;7593;49.006;8.372;2022-10-16T08:01:26;16.20;99.90
14995;DHT22;7593;49.006;8.372;2022-10-16T08:04:04;16.10;99.90
14995;DHT22;7593;49.006;8.372;2022-10-16T08:06:35;16.20;99.90
14995;DHT22;7593;49.006;8.372;2022-10-16T08:09:02;16.20;99.90
14995;DHT22;7593;49.006;8.372;2022-10-16T08:11:29;16.20;99.90
14995;DHT22;7593;49.006;8.372;2022-10-16T08:13:56;16.30;99.90
14995;DHT22;7593;49.006;8.372;2022-10-16T08:16:24;16.40;99.90
14995;DHT22;7593;49.006;8.372;2022-10-16T08:18:50;16.40;99.90
14995;DHT22;7593;49.006;8.372;2022-10-16T08:21:20;16.60;99.90
14995;DHT22;7593;49.006;8.372;2022-10-16T08:23:48;16.70;99.90
14995;DHT22;7593;49.006;8.372;2022-10-16T08:26:15;16.70;99.90
14995;DHT22;7593;49.006;8.372;2022-10-16T08:28:41;16.70;99.90
14995;DHT22;7593;49.006;8.372;2022-10-16T08:31:10;16.70;99.90
14995;DHT22;7593;49.006;8.372;2022-10-16T08:33:40;16.80;99.90
14995;DHT22;7593;49.006;8.372;2022-10-16T08:36:07;16.80;99.90
14995;DHT22;7593;49.006;8.372;2022-10-16T08:38:34;16.70;99.90
14995;DHT22;7593;49.006;8.372;2022-10-16T08:41:17;16.60;99.90
14995;DHT22;7593;49.006;8.372;2022-10-16T08:44:12;16.70;99.90
14995;DHT22;7593;49.006;8.372;2022-10-16T08:46:45;16.70;99.90
14995;DHT22;7593;49.006;8.372;2022-10-16T08:49:18;16.70;99.90
14995;DHT22;7593;49.006;8.372;2022-10-16T08:51:44;16.70;99.90
14995;DHT22;7593;49.006;8.372;2022-10-16T08:54:23;16.80;99.90
14995;DHT22;7593;49.006;8.372;2022-10-16T08:56:54;16.90;99.90
14995;DHT22;7593;49.006;8.372;2022-10-16T08:59:21;17.00;99.90
14995;DHT22;7593;49.006;8.372;2022-10-16T09:01:50;17.10;99.90
14995;DHT22;7593;49.006;8.372;2022-10-16T09:04:48;17.30;99.90
14995;DHT22;7593;49.006;8.372;2022-10-16T09:07:22;17.40;99.90
14995;DHT22;7593;49.006;8.372;2022-10-16T09:10:22;17.40;99.90
14995;DHT22;7593;49.006;8.372;2022-10-16T09:12:55;17.40;99.90
14995;DHT22;7593;49.006;8.372;2022-10-16T09:15:31;17.50;99.90
14995;DHT22;7593;49.006;8.372;2022-10-16T09:18:04;17.50;99.90
14995;DHT22;7593;49.006;8.372;2022-10-16T09:20:50;17.50;99.90
14995;DHT22;7593;49.006;8.372;2022-10-16T09:23:26;17.70;99.90
14995;DHT22;7593;49.006;8.372;2022-10-16T09:25:54;17.80;99.90
14995;DHT22;7593;49.006;8.372;2022-10-16T09:28:21;17.90;99.90
14995;DHT22;7593;49.006;8.372;2022-10-16T09:30:48;17.90;99.90
14995;DHT22;7593;49.006;8.372;2022-10-16T09:33:17;17.90;99.90
14995;DHT22;7593;49.006;8.372;2022-10-16T09:35:47;17.90;99.90
14995;DHT22;7593;49.006;8.372;2022-10-16T09:38:23;17.90;99.90
14995;DHT22;7593;49.006;8.372;2022-10-16T09:40:50;17.90;99.90
14995;DHT22;7593;49.006;8.372;2022-10-16T09:43:22;18.00;99.90
14995;DHT22;7593;49.006;8.372;2022-10-16T09:45:57;18.00;99.90
14995;DHT22;7593;49.006;8.372;2022-10-16T09:48:27;17.90;99.90
14995;DHT22;7593;49.006;8.372;2022-10-16T09:51:01;18.00;99.90
14995;DHT22;7593;49.006;8.372;2022-10-16T09:53:39;18.20;99.90
14995;DHT22;7593;49.006;8.372;2022-10-16T09:56:06;18.50;99.90
14995;DHT22;7593;49.006;8.372;2022-10-16T09:58:33;18.70;99.90
14995;DHT22;7593;49.006;8.372;2022-10-16T10:01:00;18.90;99.90
14995;DHT22;7593;49.006;8.372;2022-10-16T10:03:36;19.10;99.90
14995;DHT22;7593;49.006;8.372;2022-10-16T10:06:15;19.30;99.90
14995;DHT22;7593;49.006;8.372;2022-10-16T10:08:57;19.20;99.90
14995;DHT22;7593;49.006;8.372;2022-10-16T10:11:49;19.30;99.90
14995;DHT22;7593;49.006;8.372;2022-10-16T10:14:19;19.70;99.90
14995;DHT22;7593;49.006;8.372;2022-10-16T10:16:47;20.20;99.90
14995;DHT22;7593;49.006;8.372;2022-10-16T10:19:16;20.70;99.90
14995;DHT22;7593;49.006;8.372;2022-10-16T10:21:45;21.00;99.90
14995;DHT22;7593;49.006;8.372;2022-10-16T10:24:13;21.30;99.90
14995;DHT22;7593;49.006;8.372;2022-10-16T10:26:47;21.60;99.90
14995;DHT22;7593;49.006;8.372;2022-10-16T10:29:20;21.80;99.90
14995;DHT22;7593;49.006;8.372;2022-10-16T10:32:00;22.20;99.90
14995;DHT22;7593;49.006;8.372;2022-10-16T10:34:44;22.40;99.90
14995;DHT22;7593;49.006;8.372;2022-10-16T10:40:15;22.60;99.90
14995;DHT22;7593;49.006;8.372;2022-10-16T10:42:48;22.80;99.90
14995;DHT22;7593;49.006;8.372;2022-10-16T10:45:24;23.00;99.90
14995;DHT22;7593;49.006;8.372;2022-10-16T10:48:04;23.20;99.90
14995;DHT22;7593;49.006;8.372;2022-10-16T10:50:39;23.30;99.90
14995;DHT22;7593;49.006;8.372;2022-10-16T10:53:21;23.20;99.90
14995;DHT22;7593;49.006;8.372;2022-10-16T10:55:59;23.20;99.90
14995;DHT22;7593;49.006;8.372;2022-10-16T10:58:56;23.20;99.90
14995;DHT22;7593;49.006;8.372;2022-10-16T11:01:31;23.20;99.90
14995;DHT22;7593;49.006;8.372;2022-10-16T11:04:23;23.20;99.90
14995;DHT22;7593;49.006;8.372;2022-10-16T11:06:54;23.20;99.90
14995;DHT22;7593;49.006;8.372;2022-10-16T11:09:25;23.10;99.90
14995;DHT22;7593;49.006;8.372;2022-10-16T11:11:58;22.90;99.90
14995;DHT22;7593;49.006;8.372;2022-10-16T11:14:29;22.80;99.90
14995;DHT22;7593;49.006;8.372;2022-10-16T11:17:01;22.90;99.90
14995;DHT22;7593;49.006;8.372;2022-10-16T11:19:35;23.00;99.90
14995;DHT22;7593;49.006;8.372;2022-10-16T11:22:08;23.00;99.90
14995;DHT22;7593;49.006;8.372;2022-10-16T11:24:42;23.10;99.90
14995;DHT22;7593;49.006;8.372;2022-10-16T11:27:16;23.10;99.90
14995;DHT22;7593;49.006;8.372;2022-10-16T11:29:49;23.20;99.90
14995;DHT22;7593;49.006;8.372;2022-10-16T11:32:22;23.20;99.90
14995;DHT22;7593;49.006;8.372;2022-10-16T11:34:53;23.20;99.90
14995;DHT22;7593;49.006;8.372;2022-10-16T11:37:27;23.10;99.90
14995;DHT22;7593;49.006;8.372;2022-10-16T11:40:03;23.00;99.90
14995;DHT22;7593;49.006;8.372;2022-10-16T11:42:41;23.00;99.90
14995;DHT22;7593;49.006;8.372;2022-10-16T11:45:24;22.80;99.90
14995;DHT22;7593;49.006;8.372;2022-10-16T11:47:58;22.80;99.90
14995;DHT22;7593;49.006;8.372;2022-10-16T11:50:34;22.70;99.90
14995;DHT22;7593;49.006;8.372;2022-10-16T11:53:04;22.70;99.90
14995;DHT22;7593;49.006;8.372;2022-10-16T11:55:40;22.90;99.90
14995;DHT22;7593;49.006;8.372;2022-10-16T11:58:12;23.10;99.90
14995;DHT22;7593;49.006;8.372;2022-10-16T12:00:45;23.20;99.90
14995;DHT22;7593;49.006;8.372;2022-10-16T12:03:19;23.50;99.90
14995;DHT22;7593;49.006;8.372;2022-10-16T12:05:58;23.70;99.90
14995;DHT22;7593;49.006;8.372;2022-10-16T12:08:26;23.70;99.90
14995;DHT22;7593;49.006;8.372;2022-10-16T12:11:07;23.60;99.90
14995;DHT22;7593;49.006;8.372;2022-10-16T12:13:36;23.50;99.90
14995;DHT22;7593;49.006;8.372;2022-10-16T12:16:20;23.40;99.90
14995;DHT22;7593;49.006;8.372;2022-10-16T12:18:49;23.20;99.90
14995;DHT22;7593;49.006;8.372;2022-10-16T12:21:17;23.10;99.90
14995;DHT22;7593;49.006;8.372;2022-10-16T12:23:49;23.10;99.90
14995;DHT22;7593;49.006;8.372;2022-10-16T12:26:25;23.00;99.90
14995;DHT22;7593;49.006;8.372;2022-10-16T12:28:54;23.10;99.90
14995;DHT22;7593;49.006;8.372;2022-10-16T12:31:21;23.00;99.90
14995;DHT22;7593;49.006;8.372;2022-10-16T12:33:57;23.10;99.90
14995;DHT22;7593;49.006;8.372;2022-10-16T12:36:30;23.20;99.90
14995;DHT22;7593;49.006;8.372;2022-10-16T12:38:57;23.30;99.90
14995;DHT22;7593;49.006;8.372;2022-10-16T12:41:27;23.50;99.90
14995;DHT22;7593;49.006;8.372;2022-10-16T12:43:55;23.50;99.90
14995;DHT22;7593;49.006;8.372;2022-10-16T12:46:38;23.50;99.90
14995;DHT22;7593;49.006;8.372;2022-10-16T12:49:18;23.40;99.90
14995;DHT22;7593;49.006;8.372;2022-10-16T12:51:47;23.20;99.90
14995;DHT22;7593;49.006;8.372;2022-10-16T12:54:17;23.00;99.90
14995;DHT22;7593;49.006;8.372;2022-10-16T12:56:52;22.90;99.90
14995;DHT22;7593;49.006;8.372;2022-10-16T12:59:32;22.90;99.90
14995;DHT22;7593;49.006;8.372;2022-10-16T13:02:24;22.80;99.90
14995;DHT22;7593;49.006;8.372;2022-10-16T13:05:08;22.70;99.90
14995;DHT22;7593;49.006;8.372;2022-10-16T13:07:48;22.60;99.90
14995;DHT22;7593;49.006;8.372;2022-10-16T13:10:22;22.50;99.90
14995;DHT22;7593;49.006;8.372;2022-10-16T13:13:04;22.40;99.90
14995;DHT22;7593;49.006;8.372;2022-10-16T13:15:50;22.30;99.90
14995;DHT22;7593;49.006;8.372;2022-10-16T13:18:23;22.20;99.90
14995;DHT22;7593;49.006;8.372;2022-10-16T13:20:59;22.20;99.90
14995;DHT22;7593;49.006;8.372;2022-10-16T13:23:32;22.10;99.90
14995;DHT22;7593;49.006;8.372;2022-10-16T13:26:12;22.10;99.90
14995;DHT22;7593;49.006;8.372;2022-10-16T13:28:42;22.10;99.90
14995;DHT22;7593;49.006;8.372;2022-10-16T13:31:14;22.10;99.90
14995;DHT22;7593;49.006;8.372;2022-10-16T13:33:45;22.10;99.90
14995;DHT22;7593;49.006;8.372;2022-10-16T13:36:19;22.10;99.90
14995;DHT22;7593;49.006;8.372;2022-10-16T13:38:47;22.20;99.90
14995;DHT22;7593;49.006;8.372;2022-10-16T13:41:16;22.10;99.90
14995;DHT22;7593;49.006;8.372;2022-10-16T13:43:46;22.10;99.90
14995;DHT22;7593;49.006;8.372;2022-10-16T13:46:16;22.10;99.90
14995;DHT22;7593;49.006;8.372;2022-10-16T13:48:43;22.00;99.90
14995;DHT22;7593;49.006;8.372;2022-10-16T13:51:14;21.90;99.90
14995;DHT22;7593;49.006;8.372;2022-10-16T13:53:42;21.80;99.90
14995;DHT22;7593;49.006;8.372;2022-10-16T13:56:14;21.70;99.90
14995;DHT22;7593;49.006;8.372;2022-10-16T13:58:57;21.70;99.90
14995;DHT22;7593;49.006;8.372;2022-10-16T14:01:25;21.60;99.90
14995;DHT22;7593;49.006;8.372;2022-10-16T14:04:01;21.60;99.90
14995;DHT22;7593;49.006;8.372;2022-10-16T14:06:28;21.50;99.90
14995;DHT22;7593;49.006;8.372;2022-10-16T14:08:59;21.50;99.90
14995;DHT22;7593;49.006;8.372;2022-10-16T14:11:29;21.40;99.90
14995;DHT22;7593;49.006;8.372;2022-10-16T14:14:04;21.30;99.90
14995;DHT22;7593;49.006;8.372;2022-10-16T14:16:32;21.30;99.90
14995;DHT22;7593;49.006;8.372;2022-10-16T14:19:02;21.30;99.90
14995;DHT22;7593;49.006;8.372;2022-10-16T14:21:29;21.30;99.90
14995;DHT22;7593;49.006;8.372;2022-10-16T14:23:57;21.30;99.90
14995;DHT22;7593;49.006;8.372;2022-10-16T14:26:27;21.40;99.90
14995;DHT22;7593;49.006;8.372;2022-10-16T14:29:12;21.60;99.90
14995;DHT22;7593;49.006;8.372;2022-10-16T14:31:39;22.10;99.90
14995;DHT22;7593;49.006;8.372;2022-10-16T14:34:22;22.50;99.90
14995;DHT22;7593;49.006;8.372;2022-10-16T14:36:50;22.70;99.90
14995;DHT22;7593;49.006;8.372;2022-10-16T14:39:20;22.90;99.90
14995;DHT22;7593;49.006;8.372;2022-10-16T14:41:48;23.10;99.90
14995;DHT22;7593;49.006;8.372;2022-10-16T14:44:18;23.50;99.90
14995;DHT22;7593;49.006;8.372;2022-10-16T14:46:45;24.20;99.90
14995;DHT22;7593;49.006;8.372;2022-10-16T14:49:17;24.90;99.90
14995;DHT22;7593;49.006;8.372;2022-10-16T14:51:46;25.20;99.90
14995;DHT22;7593;49.006;8.372;2022-10-16T14:54:17;25.30;99.90
14995;DHT22;7593;49.006;8.372;2022-10-16T14:56:47;25.30;99.90
14995;DHT22;7593;49.006;8.372;2022-10-16T14:59:18;25.40;99.90
14995;DHT22;7593;49.006;8.372;2022-10-16T15:01:46;25.50;99.90
14995;DHT22;7593;49.006;8.372;2022-10-16T15:04:13;25.50;99.90
14995;DHT22;7593;49.006;8.372;2022-10-16T15:06:41;25.10;99.90
14995;DHT22;7593;49.006;8.372;2022-10-16T15:09:37;24.70;99.90
14995;DHT22;7593;49.006;8.372;2022-10-16T15:12:41;24.20;99.90
14995;DHT22;7593;49.006;8.372;2022-10-16T15:15:37;23.70;99.90
14995;DHT22;7593;49.006;8.372;2022-10-16T15:18:10;23.40;99.90
14995;DHT22;7593;49.006;8.372;2022-10-16T15:20:43;23.20;99.90
14995;DHT22;7593;49.006;8.372;2022-10-16T15:23:13;23.10;99.90
14995;DHT22;7593;49.006;8.372;2022-10-16T15:25:43;23.00;99.90
14995;DHT22;7593;49.006;8.372;2022-10-16T15:28:15;23.00;99.90
14995;DHT22;7593;49.006;8.372;2022-10-16T15:30:49;22.90;99.90
14995;DHT22;7593;49.006;8.372;2022-10-16T15:33:20;22.90;99.90
14995;DHT22;7593;49.006;8.372;2022-10-16T15:35:49;22.80;99.90
14995;DHT22;7593;49.006;8.372;2022-10-16T15:38:18;22.60;99.90
14995;DHT22;7593;49.006;8.372;2022-10-16T15:40:46;22.50;99.90
14995;DHT22;7593;49.006;8.372;2022-10-16T15:43:15;22.30;99.90
14995;DHT22;7593;49.006;8.372;2022-10-16T15:45:43;22.20;99.90
14995;DHT22;7593;49.006;8.372;2022-10-16T15:48:11;22.10;99.90
14995;DHT22;7593;49.006;8.372;2022-10-16T15:50:39;22.10;99.90
14995;DHT22;7593;49.006;8.372;2022-10-16T15:53:08;22.00;99.90
14995;DHT22;7593;49.006;8.372;2022-10-16T15:55:35;22.00;99.90
14995;DHT22;7593;49.006;8.372;2022-10-16T15:58:03;21.90;99.90
14995;DHT22;7593;49.006;8.372;2022-10-16T16:00:30;21.90;99.90
14995;DHT22;7593;49.006;8.372;2022-10-16T16:02:58;21.80;99.90
14995;DHT22;7593;49.006;8.372;2022-10-16T16:05:25;21.70;99.90
14995;DHT22;7593;49.006;8.372;2022-10-16T16:07:53;21.70;99.90
14995;DHT22;7593;49.006;8.372;2022-10-16T16:10:20;21.50;99.90